Highlands Peak, California Weather observations

Data are for observation ending at time listed.
 Day   Time    Ave.   Ave.  Ave.  Vector   Max.   Stn.    Total    Solar   Ave.  
  of    of     Air    Rel.  Wind   Wind    Wind   Baro.  Precip.   Rad.    Soil  
Year   Day     Temp.  Hum.  Speed  Dir.    Gust   Pres.                    Temp. 
2026   (PST)    F      %     mph   deg.    mph     mb.     in.     W/m2     F   
------------------------------------------------------------------------------
 247   15:00   64.8    74    4.8   238      7.7   928.2    0.00     750    75.1
 247   15:10   64.6    74    3.6   241      6.9   928.2    0.00     548    75.3
 247   15:20   63.6    77    4.7   234      8.3   928.1    0.00     390    75.5
 247   15:30   61.4    85    4.5   239      7.0   928.1    0.00     260    75.7
 247   15:40   61.7    85    3.3   259      6.2   928.0    0.00     628    75.8
 247   15:50   62.5    81    3.9   263      7.9   927.9    0.00     549    76.0
 247   16:00   63.6    74    5.7   237     10.4   927.9    0.00     629    76.2
 247   16:10   62.3    73    4.9   227      8.6   928.0    0.00     272    76.4
 247   16:20   61.0    80    3.4   234      5.3   928.1    0.00     179    76.5
 247   16:30   60.7    82    2.5   253      5.0   928.1    0.00     182    76.6
 247   16:40   61.0    82    2.0   221      4.7   928.0    0.00     198    76.7
 247   16:50   62.9    76    1.0   253      3.0   927.9    0.00     238    76.8
 247   17:00   64.5    71    2.3   230      4.8   927.9    0.00     256    77.0
 247   17:10   63.8    70    2.2   219      4.2   927.9    0.00     212    77.1
 247   17:20   64.4    69    1.7   165      4.2   927.9    0.00     184    77.2
 247   17:30   63.6    72    1.5   151      3.6   927.9    0.00     157    77.3
 247   17:40   64.3    69    1.0   152      2.3   927.9    0.00     143    77.4
 247   17:50   62.7    72    3.2   104      4.8   927.8    0.00     131    77.5
 247   18:00   61.0    73    3.9   103      4.9   927.7    0.00      90    77.6
 247   18:10   60.5    75    5.2    95      5.7   927.7    0.00      52    77.7
 247   18:20   60.8    77    5.4    97      5.8   927.7    0.00      23    77.8
 247   18:30   61.7    74    5.8   103      6.4   927.7    0.00      14    77.8
 247   18:40   61.9    72    4.3    94      5.6   927.7    0.00       3    77.9
 247   18:50   62.5    67    2.0    83      3.1   927.7    0.00       1    77.9
 247   19:00   63.2    62    1.7    79      3.3   927.7    0.00       0    77.9
 247   19:10   63.7    59    0.5   112      2.2   927.8    0.00       0    78.0
 247   19:20   63.6    60    2.0   286      4.1   927.8    0.00       0    77.9
 247   19:30   63.0    66    4.0    23      5.1   927.8    0.00       0    77.9
 247   19:40   62.5    68    3.8     2      5.0   927.8    0.00       0    77.9
 247   19:50   62.2    68    4.7     6      6.4   927.8    0.00       0    77.9
 247   20:00   62.5    66    4.6    16      6.6   927.9    0.00       0    77.9
 247   20:10   62.5    65    5.8    14      8.0   927.9    0.00       0    77.8
 247   20:20   62.2    65    4.3     3      6.0   927.9    0.00       0    77.8
 247   20:30   61.8    65    3.5     8      4.5   928.1    0.00       0    77.7
 247   20:40   62.2    64    3.0    35      4.5   928.1    0.00       0    77.7
 247   20:50   62.2    64    3.2   107      3.8   928.2    0.00       0    77.6
 247   21:00   62.7    63    2.7   118      4.4   928.3    0.00       0    77.6
 247   21:10   63.0    61    3.0   128      4.2   928.4    0.00       0    77.5
 247   21:20   63.3    58    2.7   133      3.9   928.3    0.00       0    77.5
 247   21:30   63.5    56    2.8   112      3.9   928.3    0.00       0    77.4
 247   21:40   63.4    58    3.4   115      3.9   928.3    0.00       0    77.3
 247   21:50   63.4    57    2.8    88      3.9   928.3    0.00       0    77.3
 247   22:00   63.4    58    3.2    68      3.8   928.3    0.00       0    77.2
 247   22:10   63.4    58    3.2    58      3.8   928.3    0.00       0    77.2
 247   22:20   63.6    58    3.1    51      4.1   928.3    0.00       0    77.1
 247   22:30   63.4    59    2.0    60      2.8   928.3    0.00       0    77.0
 247   22:40   63.7    58    2.8    46      4.4   928.3    0.00       0    76.9
 247   22:50   63.7    55    3.9    61      7.2   928.3    0.00       0    76.8
 247   23:00   63.6    54    4.4    61      7.2   928.3    0.00       0    76.8
 247   23:10   63.3    57    2.2   169      3.2   928.3    0.00       0    76.7
 247   23:20   63.4    56    1.2    56      2.3   928.3    0.00       0    76.6
 247   23:30   62.9    56    4.0    10      8.0   928.4    0.00       0    76.5
 247   23:40   61.8    58    4.1    19      6.4   928.4    0.00       0    76.5
 247   23:50   62.2    58    2.9    25      6.4   928.4    0.00       0    76.4
 248    0:00   61.8    58    4.7    17      6.9   928.5    0.00       0    76.3
 248    0:10   61.8    58    2.7    24      5.5   928.4    0.00       0    76.2
 248    0:20   62.9    57    0.5    80      1.5   928.4    0.00       0    76.1
 248    0:30   63.3    56    0.6   325      4.0   928.4    0.00       0    76.0
 248    0:40   62.5    58    5.3    18      8.3   928.3    0.00       0    75.9
 248    0:50   61.8    60    5.4    24      6.6   928.2    0.00       0    75.9
 248    1:00   61.8    60    4.9    21      6.5   928.2    0.00       0    75.8
 248    1:10   62.3    59    3.4    16      5.2   928.2    0.00       0    75.7
 248    1:20   62.9    58    1.0    17      2.5   928.1    0.00       0    75.6
 248    1:30   62.7    58    2.4    10      5.4   928.0    0.00       0    75.5
 248    1:40   61.7    61    4.3    11      6.1   927.9    0.00       0    75.4
 248    1:50   61.0    62    4.9    16      7.0   928.0    0.00       0    75.3
 248    2:00   60.8    62    3.8   353      4.7   928.0    0.00       0    75.2
 248    2:10   60.7    62    2.8   347      4.0   928.1    0.00       0    75.1
 248    2:20   60.4    61    3.2   306      4.2   928.1    0.00       0    75.1
 248    2:30   59.9    62    3.7   299      4.9   928.0    0.00       0    75.0
 248    2:40   59.2    65    4.7   288      5.9   928.0    0.00       0    74.9
 248    2:50   58.8    67    5.6   278      6.6   928.0    0.00       0    74.9
 248    3:00   58.8    70    4.9   276      6.0   928.0    0.00       0    74.8
 248    3:10   58.5    72    5.0   275      5.8   927.9    0.00       0    74.7
 248    3:20   58.2    72    6.2   275      7.4   927.9    0.00       0    74.6
 248    3:30   58.3    73    5.9   265      7.2   928.0    0.00       0    74.5
 248    3:40   58.0    74    5.6   276      7.2   928.0    0.00       0    74.4
 248    3:50   57.9    74    5.3   278      6.6   928.1    0.00       0    74.4
 248    4:00   57.8    74    4.5   277      5.3   928.0    0.00       0    74.3
 248    4:10   57.8    72    4.0   272      4.7   928.0    0.00       0    74.2
 248    4:20   58.4    66    3.7   269      4.7   928.0    0.00       0    74.1
 248    4:30   59.4    61    3.5   267      4.7   928.0    0.00       0    74.0
 248    4:40   59.4    62    3.7   268      4.4   927.9    0.00       0    74.0
 248    4:50   58.7    67    4.1   272      4.6   927.9    0.00       0    73.9
 248    5:00   58.2    69    4.0   277      4.7   927.9    0.00       0    73.8
 248    5:10   58.3    68    3.4   285      4.4   928.0    0.00       0    73.8
 248    5:20   59.5    66    2.8   286      3.6   927.9    0.00       0    73.7
 248    5:30   59.6    65    2.5   280      3.5   927.9    0.00       0    73.6
 248    5:40   60.2    62    1.9   277      2.3   927.9    0.00       2    73.5
 248    5:50   60.6    58    0.5   289      1.9   927.9    0.00       5    73.3
 248    6:00   60.9    57    1.0   226      1.3   928.0    0.00       9    73.3
 248    6:10   60.9    58    0.1   178      0.9   928.1    0.00      15    73.2
 248    6:20   60.9    58    1.5    97      2.0   928.2    0.00      19    73.2
 248    6:30   60.9    58    1.2   120      2.0   928.3    0.00      33    73.1
 248    6:40   61.9    56    0.4   201      1.0   928.3    0.00     135    73.0
 248    6:50   63.6    53    0.2    29      1.0   928.4    0.00     119    72.9
 248    7:00   64.5    52    1.0    51      2.4   928.4    0.00     160    72.8
 248    7:10   63.4    56    2.6    70      3.1   928.5    0.00     115    72.8
 248    7:20   63.7    56    2.8    91      4.0   928.6    0.00     339    72.8
 248    7:30   64.5    56    2.4    87      3.7   928.8    0.00     269    72.6
 248    7:40   65.3    56    2.1    92      3.3   928.9    0.00     455    72.6
 248    7:50   67.0    52    2.9   116      5.4   928.9    0.00     428    72.5
 248    8:00   65.7    53    3.3   134      5.4   928.9    0.00     302    72.4
 248    8:10   65.1    54    3.8   131      5.2   929.0    0.00     276    72.4
 248    8:20   65.1    54    3.3   147      5.6   929.0    0.00     280    72.3
 248    8:30   65.5    52    3.6   156      5.5   929.1    0.00     322    72.3
 248    8:40   65.5    52    4.1   148      6.4   929.1    0.00     400    72.2
 248    8:50   66.5    52    2.9   201      6.2   929.2    0.00     611    72.1
 248    9:00   65.8    56    2.9   229      4.0   929.3    0.00     505    71.9
 248    9:10   65.6    55    3.9   231      5.8   929.3    0.00     742    71.8
 248    9:20   65.9    53    4.0   229      5.5   929.4    0.00     728    71.7
 248    9:30   66.1    52    3.9   222      5.8   929.4    0.00     775    71.7
 248    9:40   66.1    52    4.1   219      6.5   929.4    0.00     757    71.7
 248    9:50   66.3    53    4.6   223      6.9   929.5    0.00     784    71.6
 248   10:00   65.8    54    4.4   225      6.2   929.6    0.00     666    71.7
 248   10:10   65.9    56    5.3   224      7.8   929.6    0.00     705    71.7
 248   10:20   66.8    53    5.5   226      7.6   929.7    0.00     839    71.7
 248   10:30   67.0    54    5.4   223      8.2   929.7    0.00     839    71.8
 248   10:40   67.5    52    5.1   219      7.5   929.7    0.00     848    71.9
 248   10:50   68.0    52    4.7   219      7.4   929.7    0.00     859    71.9
 248   11:00   67.9    52    5.1   226      7.2   929.7    0.00     867    72.0
 248   11:10   67.8    52    5.7   224      8.1   929.7    0.00     873    72.1
 248   11:20   67.8    51    5.3   234      8.2   929.8    0.00     879    72.2
 248   11:30   68.0    50    5.9   236      9.9   929.7    0.00     881    72.2
 248   11:40   67.0    50    6.0   239      9.8   929.7    0.00     885    72.3
 248   11:50   67.7    48    5.4   241      9.0   929.7    0.00     889    72.4
 248   12:00   68.2    46    5.1   231      8.7   929.7    0.00     889    72.5
 248   12:10   68.6    46    4.4   222      8.3   929.6    0.00     888    72.6
 248   12:20   68.3    47    5.7   231      8.6   929.5    0.00     886    72.7
 248   12:30   68.7    47    6.0   232      9.6   929.4    0.00     880    72.9
 248   12:40   68.7    46    6.6   239      9.8   929.5    0.00     874    73.0
 248   12:50   68.3    48    6.7   233      9.6   929.5    0.00     866    73.2
 248   13:00   69.0    46    6.9   238     10.7   929.6    0.00     859    73.4
 248   13:10   69.2    46    6.0   234      9.9   929.5    0.00     849    73.6
 248   13:20   69.2    46    6.6   232      9.9   929.4    0.00     836    73.9
 248   13:30   68.8    47    6.4   241      9.6   929.4    0.00     820    74.2
 248   13:40   68.8    47    6.3   233     10.4   929.3    0.00     801    74.4
 248   13:50   69.2    47    7.0   242     10.7   929.3    0.00     782    74.7
 248   14:00   69.4    46    6.6   234     10.3   929.2    0.00     769    75.0
 248   14:10   69.3    46    7.5   230     10.4   929.2    0.00     735    75.4
 248   14:20   69.8    44    7.9   228     11.5   929.2    0.00     725    75.7
 248   14:30   69.0    45    7.1   239     12.1   929.1    0.00     709    76.0
 248   14:40   68.8    45    7.8   247     12.0   929.0    0.00     688    76.4
 248   14:50   69.2    44    7.0   243     13.3   928.9    0.00     664    76.6

Return to Highlands Peak graphs page.


Western Regional Climate Center,wrcc@dri.edu